Time;durP1;ratioP1;P1;durP2;ratioP2;P2;SDS_P1;SDS_P2;PMS_P1;PMS_P2;Temp;Humidity;BMP_temperature;BMP_pressure;BME280_temperature;BME280_humidity;BME280_pressure;Samples;Min_cycle;Max_cycle;Signal;HPM_P1;HPM_P2
2021/03/11 00:00:59;;;;;;;20.67;15.52;;;6.90;82.80;;;;;;6140640;23;20152;-87
2021/03/11 00:03:25;;;;;;;23.65;16.85;;;7.10;82.40;;;;;;6145469;23;20623;-88
2021/03/11 00:06:01;;;;;;;20.60;15.82;;;7.00;82.00;;;;;;6176270;23;20155;-88
2021/03/11 00:08:30;;;;;;;23.17;15.43;;;7.00;82.40;;;;;;6123510;23;20153;-87
2021/03/11 00:11:14;;;;;;;22.17;16.80;;;8.40;81.60;;;;;;6148979;23;20149;-88
2021/03/11 00:13:43;;;;;;;21.05;14.25;;;8.50;81.60;;;;;;6170958;23;20152;-91
2021/03/11 00:16:11;;;;;;;11.45;10.35;;;8.10;80.70;;;;;;6149970;23;20212;-88
2021/03/11 00:18:38;;;;;;;20.23;17.02;;;9.60;82.70;;;;;;6152942;22;20218;-87
2021/03/11 00:21:04;;;;;;;26.10;17.23;;;7.30;79.20;;;;;;6151146;22;20137;-88
2021/03/11 00:23:33;;;;;;;25.17;18.50;;;7.00;82.80;;;;;;6150798;23;20149;-87
2021/03/11 00:26:02;;;;;;;22.33;16.40;;;7.10;84.40;;;;;;6175598;23;20396;-89
2021/03/11 00:28:34;;;;;;;24.00;16.27;;;7.20;78.50;;;;;;6126798;23;20157;-87
2021/03/11 00:31:10;;;;;;;20.27;13.18;;;7.20;82.10;;;;;;6126620;23;20145;-87
2021/03/11 00:33:38;;;;;;;24.33;15.82;;;5.60;77.00;;;;;;6149449;23;20140;-88
2021/03/11 00:36:12;;;;;;;23.92;16.15;;;8.10;80.80;;;;;;6148937;23;20180;-88
2021/03/11 00:38:40;;;;;;;19.88;13.82;;;7.20;82.40;;;;;;6151300;23;20144;-88
2021/03/11 00:41:06;;;;;;;20.58;15.18;;;7.20;79.30;;;;;;6124634;23;20187;-88
2021/03/11 00:43:41;;;;;;;24.40;16.30;;;7.20;83.30;;;;;;6173543;23;20165;-88
2021/03/11 00:46:19;;;;;;;25.73;17.77;;;6.40;83.50;;;;;;6164510;23;20152;-87
2021/03/11 00:48:44;;;;;;;25.05;19.02;;;8.10;83.00;;;;;;6150351;23;20171;-88
2021/03/11 00:51:10;;;;;;;17.13;12.83;;;7.00;86.10;;;;;;6149166;23;20149;-89
2021/03/11 00:53:41;;;;;;;23.80;15.52;;;7.00;87.10;;;;;;6149986;23;20216;-88
2021/03/11 00:58:42;;;;;;;26.98;17.70;;;6.90;87.60;;;;;;6155930;22;20528;-87
2021/03/11 01:01:08;;;;;;;15.83;12.37;;;6.70;89.80;;;;;;6175928;23;20160;-89
2021/03/11 01:03:34;;;;;;;35.70;21.70;;;6.80;90.20;;;;;;6145617;23;20500;-88
2021/03/11 01:06:00;;;;;;;16.45;11.55;;;6.90;90.30;;;;;;6148470;23;20149;-88
2021/03/11 01:08:26;;;;;;;27.83;18.87;;;6.60;90.40;;;;;;6150374;23;20153;-89
2021/03/11 01:10:52;;;;;;;27.87;17.47;;;6.70;90.50;;;;;;6175528;23;20148;-88
2021/03/11 01:13:18;;;;;;;32.28;20.33;;;6.70;90.60;;;;;;6175369;23;20441;-87
2021/03/11 01:15:44;;;;;;;17.57;14.60;;;6.70;90.80;;;;;;6176150;23;20199;-87
2021/03/11 01:18:11;;;;;;;27.33;17.58;;;6.70;91.00;;;;;;6175284;23;20141;-89
2021/03/11 01:20:37;;;;;;;32.58;21.70;;;6.60;91.10;;;;;;6172803;23;20145;-89
2021/03/11 01:23:03;;;;;;;21.67;13.13;;;6.70;91.30;;;;;;6171915;22;20195;-88
2021/03/11 01:25:29;;;;;;;25.27;17.92;;;6.50;91.30;;;;;;6149265;23;20153;-88
2021/03/11 01:27:55;;;;;;;26.23;17.83;;;7.00;91.40;;;;;;6149965;23;20225;-87
2021/03/11 01:30:21;;;;;;;25.57;18.90;;;6.60;91.10;;;;;;6151418;23;20449;-89
2021/03/11 01:32:48;;;;;;;29.52;21.13;;;6.70;91.30;;;;;;6176281;23;20137;-88
2021/03/11 01:35:15;;;;;;;34.07;22.37;;;6.60;91.10;;;;;;6174627;23;20148;-89
2021/03/11 01:38:07;;;;;;;29.23;19.30;;;6.70;91.00;;;;;;6124779;23;20165;-89
2021/03/11 01:40:34;;;;;;;28.35;20.75;;;6.20;88.80;;;;;;6148500;23;20157;-88
2021/03/11 01:43:07;;;;;;;28.73;20.67;;;6.60;90.90;;;;;;6148208;23;20183;-88
2021/03/11 01:45:35;;;;;;;27.23;20.58;;;7.10;90.00;;;;;;6173174;23;20141;-89
2021/03/11 01:48:11;;;;;;;26.40;15.45;;;7.10;88.20;;;;;;6124086;23;20157;-88
2021/03/11 01:50:38;;;;;;;16.25;12.30;;;6.90;90.20;;;;;;6147487;22;20655;-89
2021/03/11 01:53:16;;;;;;;27.10;18.73;;;6.90;89.90;;;;;;6100599;23;20171;-88
2021/03/11 01:55:47;;;;;;;27.60;17.50;;;7.70;87.90;;;;;;6172431;23;20184;-89
2021/03/11 01:58:21;;;;;;;21.95;15.30;;;6.90;88.50;;;;;;6177451;23;20189;-88
2021/03/11 02:00:54;;;;;;;17.83;12.35;;;8.00;86.20;;;;;;6106278;23;20157;-88
2021/03/11 02:03:57;;;;;;;21.25;16.80;;;9.40;88.20;;;;;;6149019;23;20149;-88
2021/03/11 02:06:35;;;;;;;23.88;17.98;;;8.40;86.70;;;;;;6149611;23;20175;-88
2021/03/11 02:09:11;;;;;;;20.33;14.40;;;9.80;87.80;;;;;;6151255;22;20161;-87
2021/03/11 02:11:43;;;;;;;18.33;15.77;;;7.20;86.40;;;;;;6123886;23;20182;-88
2021/03/11 02:14:33;;;;;;;23.48;15.50;;;7.10;85.70;;;;;;6148953;23;20132;-88
2021/03/11 02:17:09;;;;;;;18.20;14.25;;;9.70;86.20;;;;;;6128926;23;20192;-87
2021/03/11 02:20:13;;;;;;;18.95;14.25;;;7.30;81.40;;;;;;6149972;23;20168;-87
2021/03/11 02:23:12;;;;;;;16.77;14.38;;;7.70;82.10;;;;;;6150340;22;20148;-88
2021/03/11 02:26:01;;;;;;;14.30;12.27;;;7.80;81.70;;;;;;6150530;23;20179;-89
2021/03/11 02:29:10;;;;;;;9.50;8.13;;;7.40;83.60;;;;;;6175380;23;20160;-89
2021/03/11 02:31:44;;;;;;;15.15;10.50;;;7.90;80.30;;;;;;6160998;23;20160;-89
2021/03/11 02:34:20;;;;;;;12.20;10.18;;;7.40;82.10;;;;;;6149732;23;20179;-88
2021/03/11 02:37:02;;;;;;;10.85;9.02;;;7.50;81.70;;;;;;6149096;22;20184;-89
2021/03/11 02:39:41;;;;;;;12.93;10.00;;;7.50;78.70;;;;;;6151502;23;20175;-89
2021/03/11 02:42:33;;;;;;;10.40;9.10;;;7.60;81.60;;;;;;6152030;23;20159;-89
2021/03/11 02:45:23;;;;;;;10.52;8.60;;;9.50;80.90;;;;;;6148949;23;20160;-89
2021/03/11 02:48:17;;;;;;;8.38;7.57;;;7.70;81.50;;;;;;6170405;23;20160;-89
2021/03/11 02:50:49;;;;;;;7.63;7.03;;;10.10;79.70;;;;;;6172714;23;20152;-89
2021/03/11 02:53:21;;;;;;;6.75;6.25;;;7.80;80.30;;;;;;6128330;23;20165;-89
2021/03/11 02:55:59;;;;;;;6.40;5.93;;;7.80;80.10;;;;;;6177760;23;20228;-89
2021/03/11 02:58:51;;;;;;;6.43;5.82;;;10.30;79.20;;;;;;6215131;22;20264;-90
2021/03/11 03:01:48;;;;;;;6.13;5.63;;;7.90;80.70;;;;;;6302449;22;20142;-88
2021/03/11 03:04:18;;;;;;;5.82;5.35;;;10.40;79.50;;;;;;6300047;22;20170;-89
2021/03/11 03:06:53;;;;;;;7.28;6.57;;;7.90;80.50;;;;;;6299159;22;20136;-87
2021/03/11 03:09:20;;;;;;;6.80;6.30;;;8.20;82.80;;;;;;6274993;22;20160;-87
2021/03/11 03:11:47;;;;;;;6.50;5.90;;;7.90;85.60;;;;;;6274866;22;20542;-88
2021/03/11 03:14:23;;;;;;;5.22;4.93;;;8.00;85.90;;;;;;6302331;22;20176;-87
2021/03/11 03:17:03;;;;;;;4.28;4.05;;;7.90;80.80;;;;;;6303062;22;20157;-88
2021/03/11 03:19:38;;;;;;;6.47;5.97;;;8.90;81.20;;;;;;6301488;22;20134;-87
2021/03/11 03:22:09;;;;;;;6.95;6.43;;;8.00;85.60;;;;;;6276540;22;20137;-88
2021/03/11 03:24:45;;;;;;;5.82;5.43;;;8.00;87.10;;;;;;6298521;22;20138;-88
2021/03/11 03:27:29;;;;;;;5.05;4.80;;;8.00;84.10;;;;;;6273689;22;20150;-88
2021/03/11 03:30:01;;;;;;;4.25;3.90;;;8.00;85.40;;;;;;6301537;22;20127;-87
2021/03/11 03:32:29;;;;;;;2.65;2.55;;;7.90;84.60;;;;;;6277287;22;20150;-88
2021/03/11 03:35:34;;;;;;;4.43;4.15;;;10.40;85.00;;;;;;6301967;22;20150;-88
2021/03/11 03:38:13;;;;;;;4.90;4.60;;;7.50;83.50;;;;;;6299488;22;20217;-87
2021/03/11 03:40:40;;;;;;;5.18;4.88;;;8.40;84.80;;;;;;6276535;22;20157;-87
2021/03/11 03:43:42;;;;;;;4.53;4.30;;;8.00;87.30;;;;;;6274963;22;20153;-85
2021/03/11 03:46:39;;;;;;;4.28;4.07;;;8.00;84.40;;;;;;6256637;22;20145;-89
2021/03/11 03:51:46;;;;;;;4.38;4.03;;;8.00;86.70;;;;;;6180794;22;20197;-90
2021/03/11 03:54:22;;;;;;;3.88;3.65;;;7.90;90.00;;;;;;6121074;23;20141;-87
2021/03/11 03:57:06;;;;;;;5.95;5.55;;;8.50;89.90;;;;;;6121066;23;20185;-88
2021/03/11 03:59:37;;;;;;;5.53;5.13;;;7.70;91.00;;;;;;6120206;23;20164;-87
2021/03/11 04:02:04;;;;;;;6.45;6.05;;;7.60;91.20;;;;;;6121489;23;20163;-88
2021/03/11 04:04:35;;;;;;;4.85;4.53;;;7.60;91.40;;;;;;6120341;23;20157;-87
2021/03/11 04:07:03;;;;;;;5.10;4.85;;;7.60;91.50;;;;;;6146920;23;20129;-88
2021/03/11 04:09:30;;;;;;;5.63;5.22;;;7.20;91.30;;;;;;6146643;23;20146;-88
2021/03/11 04:11:57;;;;;;;5.43;4.93;;;7.70;91.60;;;;;;6145208;23;20137;-87
2021/03/11 04:14:26;;;;;;;4.80;4.50;;;7.60;92.00;;;;;;6217678;23;20174;-87
2021/03/11 04:16:56;;;;;;;5.22;4.93;;;7.60;92.40;;;;;;6116974;23;20162;-88
2021/03/11 04:19:24;;;;;;;6.03;5.50;;;7.60;92.40;;;;;;6116439;23;20129;-88
2021/03/11 04:21:51;;;;;;;3.33;2.95;;;7.60;92.40;;;;;;6091157;23;20150;-88
2021/03/11 04:24:18;;;;;;;4.85;4.55;;;7.50;92.40;;;;;;6113404;23;20155;-88
2021/03/11 04:26:47;;;;;;;3.72;3.53;;;6.90;91.90;;;;;;6113017;23;20150;-88
2021/03/11 04:29:19;;;;;;;6.85;6.13;;;7.70;92.20;;;;;;6113939;23;20221;-88
2021/03/11 04:31:47;;;;;;;5.32;5.05;;;8.30;91.10;;;;;;6114748;23;20157;-88
2021/03/11 04:34:39;;;;;;;4.50;4.10;;;7.70;90.20;;;;;;6088260;23;20215;-86
2021/03/11 04:37:12;;;;;;;8.30;5.72;;;7.80;90.70;;;;;;6115657;23;20182;-88
2021/03/11 04:39:44;;;;;;;6.45;5.93;;;7.40;91.40;;;;;;6113750;23;20142;-87
2021/03/11 04:42:18;;;;;;;6.53;6.03;;;7.70;89.90;;;;;;6087856;23;20151;-89
2021/03/11 04:44:51;;;;;;;5.88;5.38;;;7.80;89.50;;;;;;6089526;23;20167;-88
2021/03/11 04:47:21;;;;;;;6.05;5.55;;;7.80;90.90;;;;;;6115263;23;20142;-90
2021/03/11 04:49:49;;;;;;;4.85;4.55;;;9.40;90.80;;;;;;6114175;23;20170;-89
2021/03/11 04:52:20;;;;;;;7.65;7.03;;;7.90;91.00;;;;;;6110852;23;20199;-88
2021/03/11 04:54:47;;;;;;;4.60;4.40;;;9.10;90.60;;;;;;6087927;23;20158;-88
2021/03/11 04:57:31;;;;;;;6.15;5.65;;;8.00;90.70;;;;;;6110628;23;20246;-88
2021/03/11 04:59:59;;;;;;;6.40;5.82;;;7.90;87.70;;;;;;6088911;23;20139;-88
2021/03/11 05:02:34;;;;;;;5.30;4.97;;;8.10;90.30;;;;;;6088740;23;20178;-88
2021/03/11 05:05:06;;;;;;;5.85;5.22;;;8.00;87.00;;;;;;6110746;23;20150;-89
2021/03/11 05:07:42;;;;;;;4.78;4.53;;;8.10;90.00;;;;;;6109494;23;20158;-88
2021/03/11 05:10:08;;;;;;;5.18;4.88;;;6.90;86.10;;;;;;6111372;23;20158;-89
2021/03/11 05:12:34;;;;;;;4.15;3.95;;;8.20;90.10;;;;;;6086587;23;20276;-88
2021/03/11 05:15:02;;;;;;;6.57;6.00;;;8.10;90.10;;;;;;6111019;23;20151;-89
2021/03/11 05:17:37;;;;;;;5.55;5.18;;;8.00;90.30;;;;;;6109832;23;20167;-89
2021/03/11 05:20:04;;;;;;;4.68;4.47;;;7.90;90.90;;;;;;6108855;23;20161;-87
2021/03/11 05:22:36;;;;;;;5.57;5.25;;;8.00;89.90;;;;;;6109596;23;20151;-87
2021/03/11 05:25:04;;;;;;;6.07;5.57;;;7.90;88.90;;;;;;6086252;23;20587;-87
2021/03/11 05:27:31;;;;;;;6.45;5.85;;;8.00;91.20;;;;;;6088982;23;20147;-88
2021/03/11 05:30:09;;;;;;;6.90;6.50;;;7.90;91.60;;;;;;6108993;23;20155;-88
2021/03/11 05:32:44;;;;;;;5.55;5.25;;;7.90;90.30;;;;;;6110429;23;20184;-89
2021/03/11 05:35:10;;;;;;;6.07;4.85;;;7.80;92.20;;;;;;6110957;23;20154;-88
2021/03/11 05:37:41;;;;;;;7.13;6.53;;;7.80;92.60;;;;;;6085334;23;20159;-89
2021/03/11 05:40:16;;;;;;;6.40;5.97;;;5.50;89.00;;;;;;6108328;23;20460;-82
2021/03/11 05:42:52;;;;;;;5.85;5.55;;;7.90;92.70;;;;;;6088100;23;20135;-88
2021/03/11 05:45:44;;;;;;;5.60;5.18;;;7.80;91.20;;;;;;6088259;23;20139;-90
2021/03/11 05:48:14;;;;;;;6.53;6.03;;;7.80;93.20;;;;;;6109303;23;20239;-89
2021/03/11 05:50:46;;;;;;;5.72;5.43;;;7.80;93.30;;;;;;6110365;23;20190;-89
2021/03/11 05:53:13;;;;;;;5.63;5.20;;;7.70;92.80;;;;;;6114149;23;20163;-88
2021/03/11 05:55:43;;;;;;;6.28;5.65;;;7.80;93.10;;;;;;6089410;23;20182;-89
2021/03/11 05:58:11;;;;;;;6.13;5.22;;;7.80;91.60;;;;;;6089273;23;20162;-90
2021/03/11 06:00:50;;;;;;;6.30;5.80;;;7.40;92.80;;;;;;6092632;23;20215;-87
2021/03/11 06:03:16;;;;;;;6.55;5.95;;;9.20;93.00;;;;;;6114677;23;20166;-90
2021/03/11 06:05:43;;;;;;;6.10;5.70;;;7.80;93.00;;;;;;6112512;23;20154;-89
2021/03/11 06:08:09;;;;;;;4.50;4.20;;;7.90;93.20;;;;;;6114900;23;20135;-89
2021/03/11 06:10:41;;;;;;;5.22;4.82;;;8.00;93.20;;;;;;6114782;23;20162;-90
2021/03/11 06:13:19;;;;;;;5.25;4.93;;;8.00;93.20;;;;;;6112344;23;20154;-87
2021/03/11 06:15:49;;;;;;;5.88;5.47;;;7.90;91.50;;;;;;6090079;23;20308;-86
2021/03/11 06:18:30;;;;;;;5.53;5.07;;;8.00;93.40;;;;;;6088529;23;20154;-89
2021/03/11 06:21:02;;;;;;;4.72;4.53;;;8.00;93.10;;;;;;6092815;23;20157;-88
2021/03/11 06:23:32;;;;;;;5.30;5.00;;;8.10;93.20;;;;;;6115256;23;20189;-88
2021/03/11 06:25:59;;;;;;;4.65;4.35;;;8.00;93.20;;;;;;6118233;23;20138;-90
2021/03/11 06:29:00;;;;;;;4.55;4.25;;;8.20;91.40;;;;;;6064934;23;20159;-87
2021/03/11 06:31:44;;;;;;;5.95;5.28;;;8.10;91.40;;;;;;6125506;23;20154;-88
2021/03/11 06:34:42;;;;;;;4.38;4.07;;;9.00;92.40;;;;;;6112797;23;20150;-90
2021/03/11 06:37:39;;;;;;;5.53;5.03;;;9.40;92.40;;;;;;6113309;23;20194;-87
2021/03/11 06:40:27;;;;;;;5.18;4.97;;;8.30;91.40;;;;;;6114011;23;20150;-89
2021/03/11 06:43:15;;;;;;;5.32;5.10;;;8.40;92.40;;;;;;6112354;23;20177;-85
2021/03/11 06:45:50;;;;;;;5.28;4.97;;;8.40;91.40;;;;;;6089708;23;20222;-88
2021/03/11 06:48:32;;;;;;;5.53;5.13;;;8.50;92.90;;;;;;6111975;23;20150;-88
2021/03/11 06:51:20;;;;;;;4.95;4.70;;;8.60;91.10;;;;;;6108993;23;20348;-89
2021/03/11 06:54:30;;;;;;;6.35;5.85;;;8.50;90.80;;;;;;6111749;23;20139;-88
2021/03/11 06:57:30;;;;;;;7.10;5.35;;;8.60;91.10;;;;;;6112336;23;20503;-89
2021/03/11 07:00:30;;;;;;;6.10;5.70;;;8.60;91.00;;;;;;6115679;23;20161;-89
2021/03/11 07:03:06;;;;;;;5.93;5.50;;;9.70;92.00;;;;;;6109726;23;20150;-89
2021/03/11 07:06:18;;;;;;;;;;;;;;;;;;;;;
2021/03/11 07:09:01;;;;;;;4.97;4.68;;;8.60;90.80;;;;;;6111257;23;20143;-87
2021/03/11 07:11:30;;;;;;;5.95;5.45;;;8.70;90.40;;;;;;6092828;23;20160;-88
2021/03/11 07:14:01;;;;;;;6.05;5.65;;;8.70;92.00;;;;;;6085516;23;20189;-88
2021/03/11 07:16:34;;;;;;;5.93;5.53;;;8.70;91.80;;;;;;6084018;23;20182;-88
2021/03/11 07:19:34;;;;;;;4.65;4.45;;;8.80;92.20;;;;;;6110217;23;20197;-87
2021/03/11 07:22:05;;;;;;;6.70;6.20;;;8.90;92.50;;;;;;6076678;23;20158;-87
2021/03/11 07:24:38;;;;;;;4.70;4.43;;;8.90;92.00;;;;;;6110312;23;20158;-89
2021/03/11 07:27:08;;;;;;;6.28;5.82;;;8.90;92.00;;;;;;6112335;23;20135;-87
2021/03/11 07:29:34;;;;;;;5.03;4.72;;;9.40;92.00;;;;;;6110237;23;20154;-86
2021/03/11 07:32:03;;;;;;;5.47;5.28;;;9.00;91.50;;;;;;6098813;23;20142;-86
2021/03/11 07:34:35;;;;;;;7.60;6.20;;;9.00;91.50;;;;;;6100736;23;20153;-87
2021/03/11 07:37:04;;;;;;;7.20;6.00;;;9.50;91.10;;;;;;6202174;23;20212;-88
2021/03/11 07:39:36;;;;;;;6.40;5.90;;;9.00;92.60;;;;;;6098190;23;20410;-87
2021/03/11 07:42:05;;;;;;;6.50;6.10;;;9.00;93.20;;;;;;6095869;23;20193;-87
2021/03/11 07:44:35;;;;;;;5.97;5.47;;;9.20;93.10;;;;;;6108984;23;20192;-88
2021/03/11 07:47:03;;;;;;;5.38;4.88;;;9.20;92.30;;;;;;6110936;23;20201;-87
2021/03/11 07:49:37;;;;;;;6.05;5.55;;;9.00;93.30;;;;;;6087186;23;20158;-90
2021/03/11 07:52:07;;;;;;;4.93;4.37;;;9.50;92.30;;;;;;6106979;23;20194;-85
2021/03/11 07:54:35;;;;;;;3.50;3.28;;;10.30;91.60;;;;;;6086542;23;20723;-88
2021/03/11 07:59:44;;;;;;;5.05;4.25;;;9.90;90.20;;;;;;6119368;23;20212;-86
2021/03/11 08:04:48;;;;;;;3.83;3.53;;;10.30;87.80;;;;;;6149069;22;20206;-88
2021/03/11 08:09:51;;;;;;;3.05;2.95;;;10.60;84.40;;;;;;6096690;22;20189;-91
2021/03/11 08:12:38;;;;;;;4.20;3.90;;;10.60;86.50;;;;;;6115951;22;20169;-91
2021/03/11 08:17:51;;;;;;;3.58;3.38;;;10.70;84.60;;;;;;6216156;23;20446;-90
2021/03/11 08:20:20;;;;;;;4.30;3.88;;;10.70;81.90;;;;;;6214862;23;20202;-89
2021/03/11 08:28:27;;;;;;;4.82;4.60;;;10.60;85.20;;;;;;6131814;22;20217;-85
2021/03/11 08:31:04;;;;;;;3.75;3.55;;;13.00;88.50;;;;;;6198155;22;20205;-88
2021/03/11 08:33:29;;;;;;;5.15;3.78;;;11.70;87.00;;;;;;6287279;22;20156;-87
2021/03/11 08:35:57;;;;;;;3.80;3.60;;;10.60;87.90;;;;;;6255992;22;20182;-87
2021/03/11 08:38:22;;;;;;;2.95;2.75;;;10.50;87.30;;;;;;6275580;22;20149;-85
2021/03/11 08:41:07;;;;;;;3.77;3.63;;;10.80;87.50;;;;;;6273932;22;20154;-84
2021/03/11 08:43:44;;;;;;;3.15;2.97;;;10.90;86.60;;;;;;6276385;22;20232;-84
2021/03/11 08:46:14;;;;;;;4.28;2.70;;;12.20;87.30;;;;;;6248301;22;20208;-83
2021/03/11 08:48:41;;;;;;;3.37;3.17;;;11.80;84.90;;;;;;6275506;22;20200;-85
2021/03/11 08:51:10;;;;;;;5.90;3.33;;;10.90;83.30;;;;;;6275468;22;20379;-84
2021/03/11 08:53:38;;;;;;;3.13;2.93;;;10.90;84.00;;;;;;6275611;22;20396;-84
2021/03/11 08:56:16;;;;;;;3.70;3.53;;;10.80;84.50;;;;;;6248258;22;20507;-85
2021/03/11 08:58:52;;;;;;;4.30;2.47;;;10.90;84.40;;;;;;6275710;22;20145;-84
2021/03/11 09:01:43;;;;;;;2.38;1.67;;;11.60;81.10;;;;;;6274017;22;20146;-83
2021/03/11 09:04:11;;;;;;;6.18;2.58;;;11.50;73.90;;;;;;6276470;22;20181;-84
2021/03/11 09:07:02;;;;;;;3.93;3.00;;;11.60;72.30;;;;;;6276873;22;20224;-85
2021/03/11 09:09:44;;;;;;;3.03;1.70;;;11.80;72.30;;;;;;6276624;22;20404;-83
2021/03/11 09:12:20;;;;;;;5.53;1.70;;;11.60;71.10;;;;;;6276590;22;20395;-85
2021/03/11 09:14:47;;;;;;;2.27;2.03;;;12.00;69.10;;;;;;6276496;22;20384;-84
2021/03/11 09:17:16;;;;;;;6.50;2.80;;;12.20;70.30;;;;;;6280668;22;20427;-87
2021/03/11 09:20:00;;;;;;;2.20;1.20;;;11.50;69.00;;;;;;6281381;22;20362;-87
2021/03/11 09:22:47;;;;;;;3.97;1.83;;;11.40;69.20;;;;;;6280715;22;20384;-87
2021/03/11 09:25:16;;;;;;;2.00;1.90;;;12.60;71.90;;;;;;6282103;22;20369;-86
2021/03/11 09:27:52;;;;;;;3.43;1.70;;;11.20;69.30;;;;;;6256490;22;20430;-88
2021/03/11 09:30:26;;;;;;;1.50;1.00;;;11.10;69.50;;;;;;6279467;22;20384;-89
2021/03/11 09:32:52;;;;;;;2.47;1.30;;;12.30;69.90;;;;;;6247866;23;20381;-87
2021/03/11 09:35:18;;;;;;;3.07;1.47;;;10.70;71.10;;;;;;6221769;23;20377;-85
2021/03/11 09:37:58;;;;;;;8.27;2.10;;;10.70;71.20;;;;;;6247877;23;20162;-86
2021/03/11 09:40:46;;;;;;;3.43;1.87;;;12.40;71.60;;;;;;6255124;23;20365;-87
2021/03/11 09:43:15;;;;;;;4.13;2.03;;;10.70;62.40;;;;;;6250425;23;20390;-87
2021/03/11 09:46:17;;;;;;;7.00;1.85;;;10.60;63.20;;;;;;6268338;22;20130;-88
2021/03/11 09:49:23;;;;;;;3.90;2.13;;;13.00;63.50;;;;;;6267456;22;20236;-90
2021/03/11 09:51:50;;;;;;;5.90;1.57;;;10.70;63.40;;;;;;6243218;22;20369;-88
2021/03/11 09:54:25;;;;;;;3.38;1.60;;;13.30;63.90;;;;;;6269624;22;20406;-87
2021/03/11 09:57:26;;;;;;;3.83;2.20;;;10.90;62.80;;;;;;6265526;22;20162;-88
2021/03/11 09:59:51;;;;;;;1.90;1.00;;;9.60;59.00;;;;;;6261098;23;20377;-85
2021/03/11 10:02:19;;;;;;;4.17;1.93;;;12.50;63.30;;;;;;6244183;22;20450;-86
2021/03/11 10:04:54;;;;;;;5.97;2.20;;;13.40;65.30;;;;;;6261726;22;20151;-86
2021/03/11 10:07:41;;;;;;;9.40;2.50;;;15.70;61.30;;;;;;6297712;22;20376;-88
2021/03/11 10:12:45;;;;;;;1.50;1.43;;;15.50;59.60;;;;;;6110278;23;20453;-88
2021/03/11 10:15:12;;;;;;;2.70;1.80;;;16.70;51.30;;;;;;6106354;23;20425;-88
2021/03/11 10:17:45;;;;;;;3.23;2.10;;;16.80;51.70;;;;;;6109379;23;20399;-90
2021/03/11 10:20:44;;;;;;;5.57;3.03;;;18.90;51.60;;;;;;6105368;22;20454;-87
2021/03/11 10:25:46;;;;;;;7.57;1.70;;;16.30;48.70;;;;;;6083304;23;20549;-87
2021/03/11 10:28:35;;;;;;;6.00;3.13;;;21.70;53.70;;;;;;6084168;23;20391;-90
2021/03/11 10:31:09;;;;;;;5.63;1.50;;;14.80;47.80;;;;;;6067295;23;20391;-91
2021/03/11 10:33:44;;;;;;;8.40;2.10;;;17.30;50.40;;;;;;6083433;23;20439;-88
2021/03/11 10:36:18;;;;;;;5.30;2.00;;;16.70;48.40;;;;;;6107787;23;20438;-92
2021/03/11 10:39:04;;;;;;;7.13;2.67;;;19.30;50.20;;;;;;6103607;23;20417;-87
2021/03/11 10:41:31;;;;;;;8.90;4.53;;;17.70;48.20;;;;;;6080752;23;20952;-88
2021/03/11 10:44:06;;;;;;;4.40;2.40;;;18.90;48.90;;;;;;6072517;23;20399;-88
2021/03/11 10:46:31;;;;;;;7.20;2.27;;;17.20;50.40;;;;;;6079846;23;20390;-90
2021/03/11 10:48:59;;;;;;;5.93;2.27;;;17.40;50.00;;;;;;6074778;23;20382;-86
2021/03/11 10:51:27;;;;;;;5.70;3.40;;;17.40;50.20;;;;;;6076545;23;20147;-87
2021/03/11 10:53:54;;;;;;;7.20;2.17;;;16.80;50.20;;;;;;6070056;23;20399;-90
2021/03/11 10:56:22;;;;;;;6.50;3.30;;;16.20;51.10;;;;;;6093685;23;20450;-87
2021/03/11 10:59:15;;;;;;;4.63;2.53;;;16.10;50.00;;;;;;6083536;23;20397;-91
2021/03/11 11:01:44;;;;;;;7.03;2.20;;;17.30;51.50;;;;;;6083144;23;20375;-88
2021/03/11 11:04:11;;;;;;;7.43;4.10;;;15.20;52.50;;;;;;6106266;23;20451;-89
2021/03/11 11:07:27;;;;;;;5.63;2.00;;;14.50;50.60;;;;;;6086797;23;20371;-88
2021/03/11 11:09:59;;;;;;;4.50;1.87;;;15.70;51.70;;;;;;6077433;23;20870;-89
2021/03/11 11:12:33;;;;;;;10.40;4.40;;;16.00;52.00;;;;;;6079563;23;20383;-89
2021/03/11 11:15:36;;;;;;;9.47;3.20;;;14.90;48.60;;;;;;6082318;23;20393;-89
2021/03/11 11:18:06;;;;;;;6.13;2.60;;;15.10;50.40;;;;;;6082890;23;20402;-90
2021/03/11 11:20:33;;;;;;;7.43;2.83;;;14.70;50.10;;;;;;6079715;23;20394;-90
2021/03/11 11:23:00;;;;;;;13.83;2.00;;;14.90;52.10;;;;;;6076535;23;20409;-91
2021/03/11 11:25:26;;;;;;;5.90;1.97;;;14.90;51.40;;;;;;6074428;23;20954;-90
2021/03/11 11:30:44;;;;;;;7.50;2.30;;;14.90;50.70;;;;;;6111185;22;20563;-91
2021/03/11 11:33:12;;;;;;;6.40;2.60;;;17.10;52.00;;;;;;6113414;23;20417;-90
2021/03/11 11:35:41;;;;;;;7.03;2.87;;;14.40;51.00;;;;;;6088920;23;20436;-89
2021/03/11 11:38:09;;;;;;;7.23;2.73;;;14.00;49.90;;;;;;6084965;23;20390;-89
2021/03/11 11:40:37;;;;;;;12.33;3.80;;;15.40;49.50;;;;;;6113121;23;20432;-88
2021/03/11 11:43:28;;;;;;;4.80;2.23;;;15.70;48.30;;;;;;6114138;23;20401;-92
2021/03/11 11:46:02;;;;;;;7.73;3.97;;;16.00;47.40;;;;;;6112861;23;20398;-90
2021/03/11 11:48:28;;;;;;;7.40;3.00;;;16.70;45.80;;;;;;6210783;23;20366;-88
2021/03/11 11:50:55;;;;;;;2.50;2.10;;;20.00;48.00;;;;;;6190678;23;20392;-89
2021/03/11 11:54:07;;;;;;;3.07;2.00;;;16.40;38.50;;;;;;6112007;23;20237;-90
2021/03/11 11:56:33;;;;;;;2.50;1.63;;;16.50;39.60;;;;;;6088842;23;20425;-88
2021/03/11 11:59:02;;;;;;;3.43;2.60;;;14.80;42.90;;;;;;6110869;23;20389;-88
2021/03/11 12:01:30;;;;;;;4.13;2.20;;;16.10;41.30;;;;;;6114256;23;20178;-90
2021/03/11 12:03:56;;;;;;;7.73;2.67;;;17.90;40.00;;;;;;6087663;23;20426;-89
2021/03/11 12:06:35;;;;;;;4.90;2.60;;;17.40;46.10;;;;;;6107875;23;20533;-90
2021/03/11 12:09:08;;;;;;;10.20;2.83;;;19.20;46.70;;;;;;6185301;23;20418;-90
2021/03/11 12:11:51;;;;;;;4.70;2.33;;;16.30;41.60;;;;;;6091721;23;20428;-91
2021/03/11 12:14:23;;;;;;;8.40;3.43;;;15.30;42.70;;;;;;6110522;23;20370;-87
2021/03/11 12:22:14;;;;;;;3.40;2.03;;;16.20;39.20;;;;;;6085783;23;20461;-90
2021/03/11 12:24:40;;;;;;;6.80;3.00;;;15.80;47.80;;;;;;6171792;22;20431;-87
2021/03/11 12:27:09;;;;;;;8.60;3.23;;;14.90;42.60;;;;;;6153969;22;20456;-88
2021/03/11 12:29:47;;;;;;;3.17;2.13;;;16.30;45.50;;;;;;6120832;22;20264;-87
2021/03/11 12:37:23;;;;;;;6.10;2.80;;;14.50;43.40;;;;;;6105664;23;20441;-88
2021/03/11 12:39:50;;;;;;;7.40;2.53;;;19.20;49.50;;;;;;6089448;23;20393;-88
2021/03/11 12:45:41;;;;;;;2.43;1.57;;;14.30;40.80;;;;;;6114456;23;20529;-91
2021/03/11 12:50:42;;;;;;;7.50;3.07;;;15.50;39.20;;;;;;6102455;23;20457;-89
2021/03/11 12:55:50;;;;;;;5.43;2.57;;;16.60;36.90;;;;;;6129737;22;20272;-92
2021/03/11 12:58:16;;;;;;;4.53;2.13;;;15.20;36.60;;;;;;6090060;23;20399;-89
2021/03/11 13:00:46;;;;;;;7.50;2.50;;;17.70;41.70;;;;;;6115546;23;20389;-88
2021/03/11 13:03:14;;;;;;;3.80;2.17;;;16.40;41.70;;;;;;6086634;23;20158;-89
2021/03/11 13:05:43;;;;;;;8.90;3.00;;;15.20;41.00;;;;;;6109685;23;20390;-89
2021/03/11 13:08:24;;;;;;;2.90;1.87;;;18.50;43.00;;;;;;6106657;23;20378;-89
2021/03/11 13:10:49;;;;;;;4.17;2.10;;;17.40;43.90;;;;;;6078750;23;20398;-90
2021/03/11 13:13:19;;;;;;;7.60;2.47;;;17.10;43.50;;;;;;6081972;23;20425;-90
2021/03/11 13:15:48;;;;;;;7.40;3.03;;;20.10;43.80;;;;;;6090468;23;20190;-90
2021/03/11 13:18:28;;;;;;;2.80;1.73;;;16.40;41.60;;;;;;6110688;23;20393;-89
2021/03/11 13:20:54;;;;;;;3.37;2.00;;;15.00;39.20;;;;;;6064968;23;20466;-87
2021/03/11 13:23:20;;;;;;;4.63;2.23;;;16.50;42.80;;;;;;6069932;23;20394;-88
2021/03/11 13:25:47;;;;;;;4.37;2.33;;;17.60;42.00;;;;;;6096519;23;20154;-86
2021/03/11 13:28:12;;;;;;;3.80;2.20;;;15.40;38.90;;;;;;6097088;23;20164;-87
2021/03/11 13:30:42;;;;;;;6.03;2.70;;;17.60;41.30;;;;;;6071866;23;20390;-89
2021/03/11 13:33:09;;;;;;;5.67;2.10;;;16.70;40.30;;;;;;6073232;23;20418;-86
2021/03/11 13:35:35;;;;;;;3.03;2.40;;;15.70;39.50;;;;;;6097613;23;20370;-89
2021/03/11 13:38:02;;;;;;;7.77;2.70;;;14.80;37.10;;;;;;6088044;23;20449;-88
2021/03/11 13:40:36;;;;;;;4.00;2.20;;;14.60;39.80;;;;;;6092685;23;20401;-90
2021/03/11 13:43:09;;;;;;;8.97;2.33;;;17.40;40.80;;;;;;6112832;23;20540;-85
2021/03/11 13:45:48;;;;;;;3.60;1.10;;;19.30;44.20;;;;;;6112401;23;20359;-88
2021/03/11 13:48:16;;;;;;;3.77;2.40;;;15.50;36.90;;;;;;6107176;23;20363;-89
2021/03/11 13:50:54;;;;;;;5.67;2.87;;;16.80;43.20;;;;;;6109830;23;20378;-89
2021/03/11 13:53:20;;;;;;;8.10;2.67;;;18.20;45.80;;;;;;6086403;23;20383;-87
2021/03/11 13:55:45;;;;;;;2.67;1.63;;;16.70;43.10;;;;;;6102512;23;20488;-88
2021/03/11 13:58:14;;;;;;;9.80;2.20;;;14.10;44.10;;;;;;6079444;23;20165;-88
2021/03/11 14:00:52;;;;;;;;;;;;;;;;;;;;;
2021/03/11 14:03:24;;;;;;;4.63;2.67;;;14.10;46.70;;;;;;6109262;23;20363;-88
2021/03/11 14:05:49;;;;;;;5.17;2.60;;;16.70;46.70;;;;;;6085844;23;20425;-89
2021/03/11 14:08:29;;;;;;;4.57;2.70;;;14.50;46.70;;;;;;6086737;23;20390;-85
2021/03/11 14:10:56;;;;;;;4.00;2.00;;;14.40;48.70;;;;;;6087032;23;20146;-87
2021/03/11 14:13:32;;;;;;;2.73;1.47;;;13.70;52.60;;;;;;6088876;23;20516;-87
2021/03/11 14:16:08;;;;;;;5.20;2.23;;;13.50;48.90;;;;;;6208059;23;20916;-87